sensor_id;sensor_type;location;lat;lon;timestamp;temperature;humidity
3334;DHT22;1679;50.392;8.008;2023-03-01T00:01:24;-0.50;99.90
3334;DHT22;1679;50.392;8.008;2023-03-01T00:03:51;-0.40;99.90
3334;DHT22;1679;50.392;8.008;2023-03-01T00:06:16;-0.40;99.90
3334;DHT22;1679;50.392;8.008;2023-03-01T00:08:42;-0.40;99.90
3334;DHT22;1679;50.392;8.008;2023-03-01T00:11:16;-0.40;99.90
3334;DHT22;1679;50.392;8.008;2023-03-01T00:13:43;-0.40;99.90
3334;DHT22;1679;50.392;8.008;2023-03-01T00:16:11;-0.40;99.90
3334;DHT22;1679;50.392;8.008;2023-03-01T00:18:38;-0.50;99.90
3334;DHT22;1679;50.392;8.008;2023-03-01T00:21:04;-0.50;99.90
3334;DHT22;1679;50.392;8.008;2023-03-01T00:23:30;-0.60;99.90
3334;DHT22;1679;50.392;8.008;2023-03-01T00:25:57;-0.70;99.90
3334;DHT22;1679;50.392;8.008;2023-03-01T00:28:23;-0.70;99.90
3334;DHT22;1679;50.392;8.008;2023-03-01T00:30:49;-0.80;99.90
3334;DHT22;1679;50.392;8.008;2023-03-01T00:33:15;-0.90;99.90
3334;DHT22;1679;50.392;8.008;2023-03-01T00:35:40;-1.00;99.90
3334;DHT22;1679;50.392;8.008;2023-03-01T00:38:06;-1.00;99.90
3334;DHT22;1679;50.392;8.008;2023-03-01T00:40:35;-1.10;99.90
3334;DHT22;1679;50.392;8.008;2023-03-01T00:43:01;-1.10;99.90
3334;DHT22;1679;50.392;8.008;2023-03-01T00:45:27;-1.10;99.90
3334;DHT22;1679;50.392;8.008;2023-03-01T00:47:53;-1.20;99.90
3334;DHT22;1679;50.392;8.008;2023-03-01T00:50:19;-1.30;99.90
3334;DHT22;1679;50.392;8.008;2023-03-01T00:52:44;-1.40;99.90
3334;DHT22;1679;50.392;8.008;2023-03-01T00:55:10;-1.50;99.90
3334;DHT22;1679;50.392;8.008;2023-03-01T00:57:36;-1.50;99.90
3334;DHT22;1679;50.392;8.008;2023-03-01T01:00:04;-1.40;99.90
3334;DHT22;1679;50.392;8.008;2023-03-01T01:02:32;-1.40;99.90
3334;DHT22;1679;50.392;8.008;2023-03-01T01:04:59;-1.50;99.90
3334;DHT22;1679;50.392;8.008;2023-03-01T01:07:25;-1.60;99.90
3334;DHT22;1679;50.392;8.008;2023-03-01T01:09:50;-1.70;99.90
3334;DHT22;1679;50.392;8.008;2023-03-01T01:12:16;-1.70;99.90
3334;DHT22;1679;50.392;8.008;2023-03-01T01:14:41;-1.70;99.90
3334;DHT22;1679;50.392;8.008;2023-03-01T01:17:07;-1.70;99.90
3334;DHT22;1679;50.392;8.008;2023-03-01T01:19:32;-1.70;99.90
3334;DHT22;1679;50.392;8.008;2023-03-01T01:21:58;-1.70;99.90
3334;DHT22;1679;50.392;8.008;2023-03-01T01:24:23;-1.70;99.90
3334;DHT22;1679;50.392;8.008;2023-03-01T01:26:50;-1.70;99.90
3334;DHT22;1679;50.392;8.008;2023-03-01T01:29:16;-1.60;99.90
3334;DHT22;1679;50.392;8.008;2023-03-01T01:31:43;-1.60;99.90
3334;DHT22;1679;50.392;8.008;2023-03-01T01:34:13;-1.70;99.90
3334;DHT22;1679;50.392;8.008;2023-03-01T01:36:39;-1.70;99.90
3334;DHT22;1679;50.392;8.008;2023-03-01T01:39:06;-1.60;99.90
3334;DHT22;1679;50.392;8.008;2023-03-01T01:41:31;-1.50;99.90
3334;DHT22;1679;50.392;8.008;2023-03-01T01:47:01;-1.60;99.90
3334;DHT22;1679;50.392;8.008;2023-03-01T01:49:40;-1.50;99.90
3334;DHT22;1679;50.392;8.008;2023-03-01T01:52:14;-1.50;99.90
3334;DHT22;1679;50.392;8.008;2023-03-01T01:54:54;-1.50;99.90
3334;DHT22;1679;50.392;8.008;2023-03-01T01:57:26;-1.50;99.90
3334;DHT22;1679;50.392;8.008;2023-03-01T01:59:58;-1.60;99.90
3334;DHT22;1679;50.392;8.008;2023-03-01T02:02:25;-1.60;99.90
3334;DHT22;1679;50.392;8.008;2023-03-01T02:04:58;-1.50;99.90
3334;DHT22;1679;50.392;8.008;2023-03-01T02:07:26;-1.50;99.90
3334;DHT22;1679;50.392;8.008;2023-03-01T02:09:52;-1.50;99.90
3334;DHT22;1679;50.392;8.008;2023-03-01T02:12:21;-1.50;99.90
3334;DHT22;1679;50.392;8.008;2023-03-01T02:14:48;-1.40;99.90
3334;DHT22;1679;50.392;8.008;2023-03-01T02:17:15;-1.40;99.90
3334;DHT22;1679;50.392;8.008;2023-03-01T02:20:15;-1.50;99.90
3334;DHT22;1679;50.392;8.008;2023-03-01T02:22:45;-1.60;99.90
3334;DHT22;1679;50.392;8.008;2023-03-01T02:25:27;-1.70;99.90
3334;DHT22;1679;50.392;8.008;2023-03-01T02:28:08;-1.80;99.90
3334;DHT22;1679;50.392;8.008;2023-03-01T02:30:36;-1.90;99.90
3334;DHT22;1679;50.392;8.008;2023-03-01T02:33:03;-2.00;99.90
3334;DHT22;1679;50.392;8.008;2023-03-01T02:35:31;-2.10;99.90
3334;DHT22;1679;50.392;8.008;2023-03-01T02:37:59;-2.20;99.90
3334;DHT22;1679;50.392;8.008;2023-03-01T02:40:28;-2.20;99.90
3334;DHT22;1679;50.392;8.008;2023-03-01T02:42:57;-2.20;99.90
3334;DHT22;1679;50.392;8.008;2023-03-01T02:45:23;-2.30;99.90
3334;DHT22;1679;50.392;8.008;2023-03-01T02:47:49;-2.30;99.90
3334;DHT22;1679;50.392;8.008;2023-03-01T02:53:13;-2.40;99.90
3334;DHT22;1679;50.392;8.008;2023-03-01T02:55:41;-2.30;99.90
3334;DHT22;1679;50.392;8.008;2023-03-01T02:58:07;-2.10;99.90
3334;DHT22;1679;50.392;8.008;2023-03-01T03:00:36;-2.10;99.90
3334;DHT22;1679;50.392;8.008;2023-03-01T03:03:05;-2.10;99.90
3334;DHT22;1679;50.392;8.008;2023-03-01T03:05:32;-2.10;99.90
3334;DHT22;1679;50.392;8.008;2023-03-01T03:08:00;-2.00;99.90
3334;DHT22;1679;50.392;8.008;2023-03-01T03:10:32;-2.00;99.90
3334;DHT22;1679;50.392;8.008;2023-03-01T03:13:03;-2.00;99.90
3334;DHT22;1679;50.392;8.008;2023-03-01T03:15:29;-2.00;99.90
3334;DHT22;1679;50.392;8.008;2023-03-01T03:17:56;-1.90;99.90
3334;DHT22;1679;50.392;8.008;2023-03-01T03:20:26;-1.90;99.90
3334;DHT22;1679;50.392;8.008;2023-03-01T03:22:54;-2.00;99.90
3334;DHT22;1679;50.392;8.008;2023-03-01T03:25:20;-2.00;99.90
3334;DHT22;1679;50.392;8.008;2023-03-01T03:27:48;-2.00;99.90
3334;DHT22;1679;50.392;8.008;2023-03-01T03:30:18;-2.00;99.90
3334;DHT22;1679;50.392;8.008;2023-03-01T03:32:46;-2.10;99.90
3334;DHT22;1679;50.392;8.008;2023-03-01T03:35:20;-2.10;99.90
3334;DHT22;1679;50.392;8.008;2023-03-01T03:37:46;-2.10;99.90
3334;DHT22;1679;50.392;8.008;2023-03-01T03:40:40;-2.10;99.90
3334;DHT22;1679;50.392;8.008;2023-03-01T03:43:08;-2.10;99.90
3334;DHT22;1679;50.392;8.008;2023-03-01T03:45:40;-2.10;99.90
3334;DHT22;1679;50.392;8.008;2023-03-01T03:48:09;-2.10;99.90
3334;DHT22;1679;50.392;8.008;2023-03-01T03:50:35;-2.20;99.90
3334;DHT22;1679;50.392;8.008;2023-03-01T03:53:02;-2.20;99.90
3334;DHT22;1679;50.392;8.008;2023-03-01T03:55:28;-2.20;99.90
3334;DHT22;1679;50.392;8.008;2023-03-01T03:57:57;-2.30;99.90
3334;DHT22;1679;50.392;8.008;2023-03-01T04:00:24;-2.30;99.90
3334;DHT22;1679;50.392;8.008;2023-03-01T04:02:50;-2.30;99.90
3334;DHT22;1679;50.392;8.008;2023-03-01T04:05:18;-2.40;99.90
3334;DHT22;1679;50.392;8.008;2023-03-01T04:07:44;-2.40;99.90
3334;DHT22;1679;50.392;8.008;2023-03-01T04:10:16;-2.50;99.90
3334;DHT22;1679;50.392;8.008;2023-03-01T04:12:42;-2.50;99.90
3334;DHT22;1679;50.392;8.008;2023-03-01T04:15:11;-2.60;99.90
3334;DHT22;1679;50.392;8.008;2023-03-01T04:17:41;-2.70;99.90
3334;DHT22;1679;50.392;8.008;2023-03-01T04:20:09;-2.80;99.90
3334;DHT22;1679;50.392;8.008;2023-03-01T04:22:38;-2.70;99.90
3334;DHT22;1679;50.392;8.008;2023-03-01T04:25:04;-2.70;99.90
3334;DHT22;1679;50.392;8.008;2023-03-01T04:27:35;-2.70;99.90
3334;DHT22;1679;50.392;8.008;2023-03-01T04:30:03;-2.60;99.90
3334;DHT22;1679;50.392;8.008;2023-03-01T04:32:28;-2.50;99.90
3334;DHT22;1679;50.392;8.008;2023-03-01T04:34:54;-2.50;99.90
3334;DHT22;1679;50.392;8.008;2023-03-01T04:37:19;-2.40;99.90
3334;DHT22;1679;50.392;8.008;2023-03-01T04:39:45;-2.30;99.90
3334;DHT22;1679;50.392;8.008;2023-03-01T04:42:11;-2.20;99.90
3334;DHT22;1679;50.392;8.008;2023-03-01T04:44:37;-2.20;99.90
3334;DHT22;1679;50.392;8.008;2023-03-01T04:47:02;-2.20;99.90
3334;DHT22;1679;50.392;8.008;2023-03-01T04:49:29;-2.20;99.90
3334;DHT22;1679;50.392;8.008;2023-03-01T04:51:55;-2.20;99.90
3334;DHT22;1679;50.392;8.008;2023-03-01T04:54:25;-2.20;99.90
3334;DHT22;1679;50.392;8.008;2023-03-01T04:56:53;-2.40;99.90
3334;DHT22;1679;50.392;8.008;2023-03-01T04:59:18;-2.50;99.90
3334;DHT22;1679;50.392;8.008;2023-03-01T05:01:48;-2.50;99.90
3334;DHT22;1679;50.392;8.008;2023-03-01T05:04:13;-2.50;99.90
3334;DHT22;1679;50.392;8.008;2023-03-01T05:06:39;-2.60;99.90
3334;DHT22;1679;50.392;8.008;2023-03-01T05:09:05;-2.60;99.90
3334;DHT22;1679;50.392;8.008;2023-03-01T05:11:30;-2.60;99.90
3334;DHT22;1679;50.392;8.008;2023-03-01T05:14:07;-2.60;99.90
3334;DHT22;1679;50.392;8.008;2023-03-01T05:16:35;-2.60;99.90
3334;DHT22;1679;50.392;8.008;2023-03-01T05:19:03;-2.60;99.90
3334;DHT22;1679;50.392;8.008;2023-03-01T05:21:39;-2.60;99.90
3334;DHT22;1679;50.392;8.008;2023-03-01T05:24:25;-2.60;99.90
3334;DHT22;1679;50.392;8.008;2023-03-01T05:26:52;-2.50;99.90
3334;DHT22;1679;50.392;8.008;2023-03-01T05:29:23;-2.50;99.90
3334;DHT22;1679;50.392;8.008;2023-03-01T05:31:56;-2.50;99.90
3334;DHT22;1679;50.392;8.008;2023-03-01T05:34:29;-2.60;99.90
3334;DHT22;1679;50.392;8.008;2023-03-01T05:36:56;-2.60;99.90
3334;DHT22;1679;50.392;8.008;2023-03-01T05:39:26;-2.60;99.90
3334;DHT22;1679;50.392;8.008;2023-03-01T05:41:58;-2.60;99.90
3334;DHT22;1679;50.392;8.008;2023-03-01T05:44:29;-2.60;99.90
3334;DHT22;1679;50.392;8.008;2023-03-01T05:46:55;-2.60;99.90
3334;DHT22;1679;50.392;8.008;2023-03-01T05:49:21;-2.60;99.90
3334;DHT22;1679;50.392;8.008;2023-03-01T05:51:52;-2.60;99.90
3334;DHT22;1679;50.392;8.008;2023-03-01T05:54:19;-2.60;99.90
3334;DHT22;1679;50.392;8.008;2023-03-01T05:56:44;-2.60;99.90
3334;DHT22;1679;50.392;8.008;2023-03-01T05:59:11;-2.60;99.90
3334;DHT22;1679;50.392;8.008;2023-03-01T06:01:37;-2.50;99.90
3334;DHT22;1679;50.392;8.008;2023-03-01T06:04:03;-2.50;99.90
3334;DHT22;1679;50.392;8.008;2023-03-01T06:06:29;-2.60;99.90
3334;DHT22;1679;50.392;8.008;2023-03-01T06:08:56;-2.60;99.90
3334;DHT22;1679;50.392;8.008;2023-03-01T06:11:21;-2.60;99.90
3334;DHT22;1679;50.392;8.008;2023-03-01T06:13:48;-2.60;99.90
3334;DHT22;1679;50.392;8.008;2023-03-01T06:16:14;-2.60;99.90
3334;DHT22;1679;50.392;8.008;2023-03-01T06:18:40;-2.50;99.90
3334;DHT22;1679;50.392;8.008;2023-03-01T06:21:07;-2.50;99.90
3334;DHT22;1679;50.392;8.008;2023-03-01T06:23:33;-2.60;99.90
3334;DHT22;1679;50.392;8.008;2023-03-01T06:26:00;-2.50;99.90
3334;DHT22;1679;50.392;8.008;2023-03-01T06:28:26;-2.50;99.90
3334;DHT22;1679;50.392;8.008;2023-03-01T06:30:52;-2.40;99.90
3334;DHT22;1679;50.392;8.008;2023-03-01T06:33:18;-2.40;99.90
3334;DHT22;1679;50.392;8.008;2023-03-01T06:35:46;-2.50;99.90
3334;DHT22;1679;50.392;8.008;2023-03-01T06:38:12;-2.40;99.90
3334;DHT22;1679;50.392;8.008;2023-03-01T06:40:40;-2.40;99.90
3334;DHT22;1679;50.392;8.008;2023-03-01T06:43:06;-2.50;99.90
3334;DHT22;1679;50.392;8.008;2023-03-01T06:45:32;-2.50;99.90
3334;DHT22;1679;50.392;8.008;2023-03-01T06:48:02;-2.50;99.90
3334;DHT22;1679;50.392;8.008;2023-03-01T06:50:28;-2.40;99.90
3334;DHT22;1679;50.392;8.008;2023-03-01T06:52:57;-2.40;99.90
3334;DHT22;1679;50.392;8.008;2023-03-01T06:55:23;-2.40;99.90
3334;DHT22;1679;50.392;8.008;2023-03-01T06:57:54;-2.40;99.90
3334;DHT22;1679;50.392;8.008;2023-03-01T07:00:21;-2.30;99.90
3334;DHT22;1679;50.392;8.008;2023-03-01T07:02:46;-2.20;99.90
3334;DHT22;1679;50.392;8.008;2023-03-01T07:05:13;-2.10;99.90
3334;DHT22;1679;50.392;8.008;2023-03-01T07:07:39;-2.10;99.90
3334;DHT22;1679;50.392;8.008;2023-03-01T07:10:05;-2.00;99.90
3334;DHT22;1679;50.392;8.008;2023-03-01T07:12:31;-1.90;99.90
3334;DHT22;1679;50.392;8.008;2023-03-01T07:14:57;-1.80;99.90
3334;DHT22;1679;50.392;8.008;2023-03-01T07:17:23;-1.80;99.90
3334;DHT22;1679;50.392;8.008;2023-03-01T07:19:50;-1.70;99.90
3334;DHT22;1679;50.392;8.008;2023-03-01T07:22:16;-1.60;99.90
3334;DHT22;1679;50.392;8.008;2023-03-01T07:24:42;-1.50;99.90
3334;DHT22;1679;50.392;8.008;2023-03-01T07:27:08;-1.40;99.90
3334;DHT22;1679;50.392;8.008;2023-03-01T07:29:33;-1.40;99.90
3334;DHT22;1679;50.392;8.008;2023-03-01T07:32:02;-1.30;99.90
3334;DHT22;1679;50.392;8.008;2023-03-01T07:34:27;-1.20;99.90
3334;DHT22;1679;50.392;8.008;2023-03-01T07:36:53;-1.20;99.90
3334;DHT22;1679;50.392;8.008;2023-03-01T07:39:19;-1.00;99.90
3334;DHT22;1679;50.392;8.008;2023-03-01T07:41:44;-0.90;99.90
3334;DHT22;1679;50.392;8.008;2023-03-01T07:44:10;-0.80;99.90
3334;DHT22;1679;50.392;8.008;2023-03-01T07:46:38;-0.60;99.90
3334;DHT22;1679;50.392;8.008;2023-03-01T07:49:03;-0.50;99.90
3334;DHT22;1679;50.392;8.008;2023-03-01T07:51:29;-0.30;99.90
3334;DHT22;1679;50.392;8.008;2023-03-01T07:53:55;-0.20;99.90
3334;DHT22;1679;50.392;8.008;2023-03-01T07:56:20;0.10;99.90
3334;DHT22;1679;50.392;8.008;2023-03-01T07:58:47;0.40;99.90
3334;DHT22;1679;50.392;8.008;2023-03-01T08:01:15;0.60;99.90
3334;DHT22;1679;50.392;8.008;2023-03-01T08:03:41;1.00;99.90
3334;DHT22;1679;50.392;8.008;2023-03-01T08:06:09;1.30;99.90
3334;DHT22;1679;50.392;8.008;2023-03-01T08:08:35;1.90;99.90
3334;DHT22;1679;50.392;8.008;2023-03-01T08:11:03;2.00;99.90
3334;DHT22;1679;50.392;8.008;2023-03-01T08:13:30;2.10;99.90
3334;DHT22;1679;50.392;8.008;2023-03-01T08:16:01;2.30;99.90
3334;DHT22;1679;50.392;8.008;2023-03-01T08:18:27;2.20;99.90
3334;DHT22;1679;50.392;8.008;2023-03-01T08:20:54;2.20;99.90
3334;DHT22;1679;50.392;8.008;2023-03-01T08:23:19;2.30;99.90
3334;DHT22;1679;50.392;8.008;2023-03-01T08:25:44;2.30;99.90
3334;DHT22;1679;50.392;8.008;2023-03-01T08:28:10;2.40;99.90
3334;DHT22;1679;50.392;8.008;2023-03-01T08:30:35;2.70;99.90
3334;DHT22;1679;50.392;8.008;2023-03-01T08:33:01;2.90;99.90
3334;DHT22;1679;50.392;8.008;2023-03-01T08:35:26;3.20;99.90
3334;DHT22;1679;50.392;8.008;2023-03-01T08:37:52;3.50;99.90
3334;DHT22;1679;50.392;8.008;2023-03-01T08:40:18;3.30;99.90
3334;DHT22;1679;50.392;8.008;2023-03-01T08:42:45;3.30;99.90
3334;DHT22;1679;50.392;8.008;2023-03-01T08:45:11;3.40;99.90
3334;DHT22;1679;50.392;8.008;2023-03-01T08:47:37;3.60;99.90
3334;DHT22;1679;50.392;8.008;2023-03-01T08:50:04;3.80;99.90
3334;DHT22;1679;50.392;8.008;2023-03-01T08:52:29;3.70;99.90
3334;DHT22;1679;50.392;8.008;2023-03-01T08:54:55;3.50;99.90
3334;DHT22;1679;50.392;8.008;2023-03-01T08:57:21;3.50;99.90
3334;DHT22;1679;50.392;8.008;2023-03-01T08:59:46;3.30;99.90
3334;DHT22;1679;50.392;8.008;2023-03-01T09:02:15;3.20;99.90
3334;DHT22;1679;50.392;8.008;2023-03-01T09:04:41;3.20;99.90
3334;DHT22;1679;50.392;8.008;2023-03-01T09:07:07;3.20;99.90
3334;DHT22;1679;50.392;8.008;2023-03-01T09:09:33;3.30;99.90
3334;DHT22;1679;50.392;8.008;2023-03-01T09:11:58;3.60;99.90
3334;DHT22;1679;50.392;8.008;2023-03-01T09:14:25;3.50;99.90
3334;DHT22;1679;50.392;8.008;2023-03-01T09:16:51;3.50;99.90
3334;DHT22;1679;50.392;8.008;2023-03-01T09:19:17;3.40;99.90
3334;DHT22;1679;50.392;8.008;2023-03-01T09:21:43;3.40;99.90
3334;DHT22;1679;50.392;8.008;2023-03-01T09:24:22;3.70;99.90
3334;DHT22;1679;50.392;8.008;2023-03-01T09:26:48;3.60;99.90
3334;DHT22;1679;50.392;8.008;2023-03-01T09:29:15;3.60;99.90
3334;DHT22;1679;50.392;8.008;2023-03-01T09:31:41;3.50;99.90
3334;DHT22;1679;50.392;8.008;2023-03-01T09:34:07;3.40;99.90
3334;DHT22;1679;50.392;8.008;2023-03-01T09:36:33;3.40;99.90
3334;DHT22;1679;50.392;8.008;2023-03-01T09:38:59;3.70;99.90
3334;DHT22;1679;50.392;8.008;2023-03-01T09:44:29;4.50;99.90
3334;DHT22;1679;50.392;8.008;2023-03-01T09:46:57;4.70;99.90
3334;DHT22;1679;50.392;8.008;2023-03-01T09:49:31;4.70;99.90
3334;DHT22;1679;50.392;8.008;2023-03-01T09:54:47;4.20;99.90
3334;DHT22;1679;50.392;8.008;2023-03-01T09:57:36;4.10;99.90
3334;DHT22;1679;50.392;8.008;2023-03-01T10:00:29;4.00;99.90
3334;DHT22;1679;50.392;8.008;2023-03-01T10:03:09;3.90;99.90
3334;DHT22;1679;50.392;8.008;2023-03-01T10:06:01;3.80;99.90
3334;DHT22;1679;50.392;8.008;2023-03-01T10:08:42;3.80;99.90
3334;DHT22;1679;50.392;8.008;2023-03-01T10:11:24;4.10;99.90
3334;DHT22;1679;50.392;8.008;2023-03-01T10:14:12;4.30;99.90
3334;DHT22;1679;50.392;8.008;2023-03-01T10:16:48;4.50;99.90
3334;DHT22;1679;50.392;8.008;2023-03-01T10:19:41;4.70;99.90
3334;DHT22;1679;50.392;8.008;2023-03-01T10:22:20;4.50;99.90
3334;DHT22;1679;50.392;8.008;2023-03-01T10:24:49;4.80;99.90
3334;DHT22;1679;50.392;8.008;2023-03-01T10:27:28;5.10;99.90
3334;DHT22;1679;50.392;8.008;2023-03-01T10:30:09;5.10;99.90
3334;DHT22;1679;50.392;8.008;2023-03-01T10:32:36;4.90;99.90
3334;DHT22;1679;50.392;8.008;2023-03-01T10:38:06;5.20;99.90
3334;DHT22;1679;50.392;8.008;2023-03-01T10:40:34;4.90;99.90
3334;DHT22;1679;50.392;8.008;2023-03-01T10:43:03;4.60;99.90
3334;DHT22;1679;50.392;8.008;2023-03-01T10:50:44;5.40;99.90
3334;DHT22;1679;50.392;8.008;2023-03-01T10:55:57;5.30;99.90
3334;DHT22;1679;50.392;8.008;2023-03-01T10:58:23;5.10;99.90
3334;DHT22;1679;50.392;8.008;2023-03-01T11:00:58;4.80;99.90
3334;DHT22;1679;50.392;8.008;2023-03-01T11:03:27;4.80;99.90
3334;DHT22;1679;50.392;8.008;2023-03-01T11:08:47;4.90;99.90
3334;DHT22;1679;50.392;8.008;2023-03-01T11:11:24;5.00;99.90
3334;DHT22;1679;50.392;8.008;2023-03-01T11:14:16;5.10;99.90
3334;DHT22;1679;50.392;8.008;2023-03-01T11:16:45;5.20;99.90
3334;DHT22;1679;50.392;8.008;2023-03-01T11:22:03;4.80;99.90
3334;DHT22;1679;50.392;8.008;2023-03-01T11:24:37;4.90;99.90
3334;DHT22;1679;50.392;8.008;2023-03-01T11:27:12;5.20;99.90
3334;DHT22;1679;50.392;8.008;2023-03-01T11:32:43;5.70;99.90
3334;DHT22;1679;50.392;8.008;2023-03-01T11:35:26;5.90;99.90
3334;DHT22;1679;50.392;8.008;2023-03-01T11:40:39;5.70;99.90
3334;DHT22;1679;50.392;8.008;2023-03-01T11:43:19;5.70;99.90
3334;DHT22;1679;50.392;8.008;2023-03-01T11:48:50;5.90;99.90
3334;DHT22;1679;50.392;8.008;2023-03-01T11:51:40;5.50;99.90
3334;DHT22;1679;50.392;8.008;2023-03-01T11:57:01;5.50;99.90
3334;DHT22;1679;50.392;8.008;2023-03-01T12:00:02;5.50;99.90
3334;DHT22;1679;50.392;8.008;2023-03-01T12:08:17;5.40;99.90
3334;DHT22;1679;50.392;8.008;2023-03-01T12:14:01;5.50;99.90
3334;DHT22;1679;50.392;8.008;2023-03-01T12:16:49;5.70;99.90
3334;DHT22;1679;50.392;8.008;2023-03-01T12:24:57;6.00;99.90
3334;DHT22;1679;50.392;8.008;2023-03-01T12:38:31;5.70;99.90
3334;DHT22;1679;50.392;8.008;2023-03-01T12:41:11;5.60;99.90
3334;DHT22;1679;50.392;8.008;2023-03-01T12:46:14;5.70;99.90
3334;DHT22;1679;50.392;8.008;2023-03-01T12:49:18;5.80;99.90
3334;DHT22;1679;50.392;8.008;2023-03-01T12:51:56;5.80;99.90
3334;DHT22;1679;50.392;8.008;2023-03-01T12:54:29;5.80;99.90
3334;DHT22;1679;50.392;8.008;2023-03-01T12:57:01;5.80;99.90
3334;DHT22;1679;50.392;8.008;2023-03-01T13:00:37;5.80;99.90
3334;DHT22;1679;50.392;8.008;2023-03-01T13:02:49;5.80;99.90
3334;DHT22;1679;50.392;8.008;2023-03-01T13:05:21;5.90;99.90
3334;DHT22;1679;50.392;8.008;2023-03-01T13:10:58;6.00;99.90
3334;DHT22;1679;50.392;8.008;2023-03-01T13:13:27;6.10;99.90
3334;DHT22;1679;50.392;8.008;2023-03-01T13:15:53;6.00;99.90
3334;DHT22;1679;50.392;8.008;2023-03-01T13:20:50;6.10;99.90
3334;DHT22;1679;50.392;8.008;2023-03-01T13:26:05;6.10;99.90
3334;DHT22;1679;50.392;8.008;2023-03-01T13:28:40;6.20;99.90
3334;DHT22;1679;50.392;8.008;2023-03-01T13:31:10;6.30;99.90
3334;DHT22;1679;50.392;8.008;2023-03-01T13:34:06;6.30;99.90
3334;DHT22;1679;50.392;8.008;2023-03-01T13:36:51;6.40;99.90
3334;DHT22;1679;50.392;8.008;2023-03-01T13:39:29;6.50;99.90
3334;DHT22;1679;50.392;8.008;2023-03-01T13:41:58;6.50;99.90
3334;DHT22;1679;50.392;8.008;2023-03-01T13:44:37;6.50;99.90
3334;DHT22;1679;50.392;8.008;2023-03-01T13:49:57;6.50;99.90
3334;DHT22;1679;50.392;8.008;2023-03-01T13:52:40;6.50;99.90
3334;DHT22;1679;50.392;8.008;2023-03-01T13:55:18;6.50;99.90
3334;DHT22;1679;50.392;8.008;2023-03-01T13:57:50;6.50;99.90
3334;DHT22;1679;50.392;8.008;2023-03-01T14:00:36;6.50;99.90
3334;DHT22;1679;50.392;8.008;2023-03-01T14:03:12;6.50;99.90
3334;DHT22;1679;50.392;8.008;2023-03-01T14:05:41;6.60;99.90
3334;DHT22;1679;50.392;8.008;2023-03-01T14:08:22;6.60;99.90
3334;DHT22;1679;50.392;8.008;2023-03-01T14:19:21;6.60;99.90
3334;DHT22;1679;50.392;8.008;2023-03-01T14:24:55;6.60;99.90
3334;DHT22;1679;50.392;8.008;2023-03-01T14:27:23;6.60;99.90
3334;DHT22;1679;50.392;8.008;2023-03-01T14:29:59;6.60;99.90
3334;DHT22;1679;50.392;8.008;2023-03-01T14:32:30;6.70;99.90
3334;DHT22;1679;50.392;8.008;2023-03-01T14:35:03;6.70;99.90
3334;DHT22;1679;50.392;8.008;2023-03-01T14:37:34;6.70;99.90
3334;DHT22;1679;50.392;8.008;2023-03-01T14:40:04;6.70;99.90
3334;DHT22;1679;50.392;8.008;2023-03-01T14:42:36;6.70;99.90
3334;DHT22;1679;50.392;8.008;2023-03-01T14:45:04;6.70;99.90
3334;DHT22;1679;50.392;8.008;2023-03-01T14:47:33;6.60;99.90
3334;DHT22;1679;50.392;8.008;2023-03-01T14:50:29;6.60;99.90
3334;DHT22;1679;50.392;8.008;2023-03-01T14:53:02;6.60;99.90
3334;DHT22;1679;50.392;8.008;2023-03-01T14:55:41;6.60;99.90
3334;DHT22;1679;50.392;8.008;2023-03-01T14:58:13;6.60;99.90
3334;DHT22;1679;50.392;8.008;2023-03-01T15:03:43;6.60;99.90
3334;DHT22;1679;50.392;8.008;2023-03-01T15:06:10;6.60;99.90
3334;DHT22;1679;50.392;8.008;2023-03-01T15:08:42;6.60;99.90
3334;DHT22;1679;50.392;8.008;2023-03-01T15:11:24;6.60;99.90
3334;DHT22;1679;50.392;8.008;2023-03-01T15:13:52;6.60;99.90
3334;DHT22;1679;50.392;8.008;2023-03-01T15:16:27;6.60;99.90
3334;DHT22;1679;50.392;8.008;2023-03-01T15:21:33;6.60;99.90
3334;DHT22;1679;50.392;8.008;2023-03-01T15:26:57;6.60;99.90
3334;DHT22;1679;50.392;8.008;2023-03-01T15:29:26;6.50;99.90
3334;DHT22;1679;50.392;8.008;2023-03-01T15:32:04;6.60;99.90
3334;DHT22;1679;50.392;8.008;2023-03-01T15:34:30;6.50;99.90
3334;DHT22;1679;50.392;8.008;2023-03-01T15:36:58;6.50;99.90
3334;DHT22;1679;50.392;8.008;2023-03-01T15:42:03;6.50;99.90
3334;DHT22;1679;50.392;8.008;2023-03-01T15:44:32;6.40;99.90
3334;DHT22;1679;50.392;8.008;2023-03-01T15:46:58;6.40;99.90
3334;DHT22;1679;50.392;8.008;2023-03-01T15:49:40;6.30;99.90
3334;DHT22;1679;50.392;8.008;2023-03-01T15:52:13;6.30;99.90
3334;DHT22;1679;50.392;8.008;2023-03-01T15:54:42;6.30;99.90
3334;DHT22;1679;50.392;8.008;2023-03-01T15:57:12;6.30;99.90
3334;DHT22;1679;50.392;8.008;2023-03-01T15:59:40;6.30;99.90
3334;DHT22;1679;50.392;8.008;2023-03-01T16:02:12;6.20;99.90
3334;DHT22;1679;50.392;8.008;2023-03-01T16:04:40;6.20;99.90
3334;DHT22;1679;50.392;8.008;2023-03-01T16:07:05;6.20;99.90
3334;DHT22;1679;50.392;8.008;2023-03-01T16:09:31;6.20;99.90
3334;DHT22;1679;50.392;8.008;2023-03-01T16:11:57;6.10;99.90
3334;DHT22;1679;50.392;8.008;2023-03-01T16:14:23;6.00;99.90
3334;DHT22;1679;50.392;8.008;2023-03-01T16:16:50;6.00;99.90
3334;DHT22;1679;50.392;8.008;2023-03-01T16:19:16;6.00;99.90
3334;DHT22;1679;50.392;8.008;2023-03-01T16:21:42;5.90;99.90
3334;DHT22;1679;50.392;8.008;2023-03-01T16:24:10;5.90;99.90
3334;DHT22;1679;50.392;8.008;2023-03-01T16:26:36;5.80;99.90
3334;DHT22;1679;50.392;8.008;2023-03-01T16:29:02;5.80;99.90
3334;DHT22;1679;50.392;8.008;2023-03-01T16:31:29;5.80;99.90
3334;DHT22;1679;50.392;8.008;2023-03-01T16:33:56;5.70;99.90
3334;DHT22;1679;50.392;8.008;2023-03-01T16:36:23;5.70;99.90
3334;DHT22;1679;50.392;8.008;2023-03-01T16:38:51;5.60;99.90
3334;DHT22;1679;50.392;8.008;2023-03-01T16:41:19;5.50;99.90
3334;DHT22;1679;50.392;8.008;2023-03-01T16:43:47;5.50;99.90
3334;DHT22;1679;50.392;8.008;2023-03-01T16:46:18;5.40;99.90
3334;DHT22;1679;50.392;8.008;2023-03-01T16:48:46;5.30;99.90
3334;DHT22;1679;50.392;8.008;2023-03-01T16:51:12;5.30;99.90
3334;DHT22;1679;50.392;8.008;2023-03-01T16:53:39;5.30;99.90
3334;DHT22;1679;50.392;8.008;2023-03-01T16:56:08;5.20;99.90
3334;DHT22;1679;50.392;8.008;2023-03-01T16:58:35;5.10;99.90
3334;DHT22;1679;50.392;8.008;2023-03-01T17:01:05;5.00;99.90
3334;DHT22;1679;50.392;8.008;2023-03-01T17:03:33;5.00;99.90
3334;DHT22;1679;50.392;8.008;2023-03-01T17:06:02;4.90;99.90
3334;DHT22;1679;50.392;8.008;2023-03-01T17:08:28;4.80;99.90
3334;DHT22;1679;50.392;8.008;2023-03-01T17:10:53;4.70;99.90
3334;DHT22;1679;50.392;8.008;2023-03-01T17:13:19;4.70;99.90
3334;DHT22;1679;50.392;8.008;2023-03-01T17:15:44;4.60;99.90
3334;DHT22;1679;50.392;8.008;2023-03-01T17:18:10;4.60;99.90
3334;DHT22;1679;50.392;8.008;2023-03-01T17:20:37;4.50;99.90
3334;DHT22;1679;50.392;8.008;2023-03-01T17:23:02;4.40;99.90
3334;DHT22;1679;50.392;8.008;2023-03-01T17:25:28;4.40;99.90
3334;DHT22;1679;50.392;8.008;2023-03-01T17:27:54;4.30;99.90
3334;DHT22;1679;50.392;8.008;2023-03-01T17:30:20;4.20;99.90
3334;DHT22;1679;50.392;8.008;2023-03-01T17:32:45;4.10;99.90
3334;DHT22;1679;50.392;8.008;2023-03-01T17:35:11;4.10;99.90
3334;DHT22;1679;50.392;8.008;2023-03-01T17:37:38;4.00;99.90
3334;DHT22;1679;50.392;8.008;2023-03-01T17:40:05;3.90;99.90
3334;DHT22;1679;50.392;8.008;2023-03-01T17:42:32;3.90;99.90
3334;DHT22;1679;50.392;8.008;2023-03-01T17:44:57;3.80;99.90
3334;DHT22;1679;50.392;8.008;2023-03-01T17:47:23;3.90;99.90
3334;DHT22;1679;50.392;8.008;2023-03-01T17:49:48;3.90;99.90
3334;DHT22;1679;50.392;8.008;2023-03-01T17:52:16;4.00;99.90
3334;DHT22;1679;50.392;8.008;2023-03-01T17:54:42;4.00;99.90
3334;DHT22;1679;50.392;8.008;2023-03-01T17:57:08;4.00;99.90
3334;DHT22;1679;50.392;8.008;2023-03-01T17:59:37;3.90;99.90
3334;DHT22;1679;50.392;8.008;2023-03-01T18:02:04;3.90;99.90
3334;DHT22;1679;50.392;8.008;2023-03-01T18:04:29;3.90;99.90
3334;DHT22;1679;50.392;8.008;2023-03-01T18:06:56;3.90;99.90